sensor_id;sensor_type;location;lat;lon;timestamp;pressure;altitude;pressure_sealevel;temperature;humidity
2178;BME280;1095;50.992;6.798;2024-02-26T00:00:11;99241.34;;;6.76;71.19
2178;BME280;1095;50.992;6.798;2024-02-26T00:02:38;99233.63;;;6.74;71.67
2178;BME280;1095;50.992;6.798;2024-02-26T00:05:06;99236.38;;;6.73;71.38
2178;BME280;1095;50.992;6.798;2024-02-26T00:07:32;99234.44;;;6.75;71.41
2178;BME280;1095;50.992;6.798;2024-02-26T00:10:01;99229.31;;;6.73;71.96
2178;BME280;1095;50.992;6.798;2024-02-26T00:12:27;99221.84;;;6.69;71.71
2178;BME280;1095;50.992;6.798;2024-02-26T00:14:56;99225.19;;;6.71;72.12
2178;BME280;1095;50.992;6.798;2024-02-26T00:17:23;99235.16;;;6.67;74.26
2178;BME280;1095;50.992;6.798;2024-02-26T00:19:50;99227.41;;;6.66;71.93
2178;BME280;1095;50.992;6.798;2024-02-26T00:22:17;99227.84;;;6.61;73.27
2178;BME280;1095;50.992;6.798;2024-02-26T00:24:43;99228.38;;;6.65;73.99
2178;BME280;1095;50.992;6.798;2024-02-26T00:27:11;99213.84;;;6.61;73.24
2178;BME280;1095;50.992;6.798;2024-02-26T00:29:38;99203.06;;;6.64;73.14
2178;BME280;1095;50.992;6.798;2024-02-26T00:32:05;99207.66;;;6.62;73.84
2178;BME280;1095;50.992;6.798;2024-02-26T00:34:32;99206.72;;;6.53;74.47
2178;BME280;1095;50.992;6.798;2024-02-26T00:36:58;99197.00;;;6.53;74.38
2178;BME280;1095;50.992;6.798;2024-02-26T00:39:25;99201.13;;;6.56;74.29
2178;BME280;1095;50.992;6.798;2024-02-26T00:41:51;99204.50;;;6.48;75.16
2178;BME280;1095;50.992;6.798;2024-02-26T00:44:19;99199.91;;;6.50;73.99
2178;BME280;1095;50.992;6.798;2024-02-26T00:46:46;99200.63;;;6.52;74.21
2178;BME280;1095;50.992;6.798;2024-02-26T00:49:15;99198.28;;;6.49;74.88
2178;BME280;1095;50.992;6.798;2024-02-26T00:51:42;99206.31;;;6.48;74.79
2178;BME280;1095;50.992;6.798;2024-02-26T00:54:09;99206.31;;;6.48;74.69
2178;BME280;1095;50.992;6.798;2024-02-26T00:56:35;99212.41;;;6.48;75.25
2178;BME280;1095;50.992;6.798;2024-02-26T00:59:02;99216.94;;;6.46;75.38
2178;BME280;1095;50.992;6.798;2024-02-26T01:01:30;99210.72;;;6.47;75.12
2178;BME280;1095;50.992;6.798;2024-02-26T01:03:56;99213.78;;;6.43;76.10
2178;BME280;1095;50.992;6.798;2024-02-26T01:06:23;99221.66;;;6.43;75.57
2178;BME280;1095;50.992;6.798;2024-02-26T01:08:50;99216.94;;;6.46;75.01
2178;BME280;1095;50.992;6.798;2024-02-26T01:11:16;99209.38;;;6.43;75.76
2178;BME280;1095;50.992;6.798;2024-02-26T01:13:43;99202.03;;;6.37;77.79
2178;BME280;1095;50.992;6.798;2024-02-26T01:16:10;99193.75;;;6.32;76.97
2178;BME280;1095;50.992;6.798;2024-02-26T01:18:38;99208.53;;;6.33;77.84
2178;BME280;1095;50.992;6.798;2024-02-26T01:21:05;99206.47;;;6.37;77.75
2178;BME280;1095;50.992;6.798;2024-02-26T01:23:34;99207.88;;;6.31;78.49
2178;BME280;1095;50.992;6.798;2024-02-26T01:26:00;99190.31;;;6.31;78.97
2178;BME280;1095;50.992;6.798;2024-02-26T01:28:28;99201.38;;;6.35;77.89
2178;BME280;1095;50.992;6.798;2024-02-26T01:30:54;99199.28;;;6.29;78.74
2178;BME280;1095;50.992;6.798;2024-02-26T01:33:21;99195.00;;;6.28;78.73
2178;BME280;1095;50.992;6.798;2024-02-26T01:35:49;99197.63;;;6.28;79.62
2178;BME280;1095;50.992;6.798;2024-02-26T01:38:15;99198.06;;;6.23;80.62
2178;BME280;1095;50.992;6.798;2024-02-26T01:40:42;99202.34;;;6.24;81.15
2178;BME280;1095;50.992;6.798;2024-02-26T01:43:09;99190.03;;;6.25;80.54
2178;BME280;1095;50.992;6.798;2024-02-26T01:45:35;99202.88;;;6.28;79.49
2178;BME280;1095;50.992;6.798;2024-02-26T01:48:03;99195.88;;;6.19;81.35
2178;BME280;1095;50.992;6.798;2024-02-26T01:50:30;99194.22;;;6.18;80.88
2178;BME280;1095;50.992;6.798;2024-02-26T01:53:01;99181.50;;;6.13;81.81
2178;BME280;1095;50.992;6.798;2024-02-26T01:55:28;99178.59;;;6.06;82.21
2178;BME280;1095;50.992;6.798;2024-02-26T01:57:55;99188.69;;;6.11;82.61
2178;BME280;1095;50.992;6.798;2024-02-26T02:00:23;99178.59;;;6.06;83.31
2178;BME280;1095;50.992;6.798;2024-02-26T02:02:50;99187.59;;;6.04;83.21
2178;BME280;1095;50.992;6.798;2024-02-26T02:05:18;99190.06;;;6.05;83.10
2178;BME280;1095;50.992;6.798;2024-02-26T02:07:47;99195.59;;;6.02;83.69
2178;BME280;1095;50.992;6.798;2024-02-26T02:10:16;99187.31;;;5.97;83.86
2178;BME280;1095;50.992;6.798;2024-02-26T02:12:48;99185.13;;;5.93;84.24
2178;BME280;1095;50.992;6.798;2024-02-26T02:15:15;99190.50;;;5.91;85.41
2178;BME280;1095;50.992;6.798;2024-02-26T02:17:42;99183.47;;;5.92;84.65
2178;BME280;1095;50.992;6.798;2024-02-26T02:20:09;99183.59;;;5.90;85.14
2178;BME280;1095;50.992;6.798;2024-02-26T02:22:39;99184.28;;;5.92;85.79
2178;BME280;1095;50.992;6.798;2024-02-26T02:25:06;99176.53;;;5.91;85.30
2178;BME280;1095;50.992;6.798;2024-02-26T02:27:33;99186.22;;;5.90;85.84
2178;BME280;1095;50.992;6.798;2024-02-26T02:30:00;99186.78;;;5.94;85.60
2178;BME280;1095;50.992;6.798;2024-02-26T02:32:28;99186.09;;;5.92;85.49
2178;BME280;1095;50.992;6.798;2024-02-26T02:34:56;99183.59;;;5.90;86.85
2178;BME280;1095;50.992;6.798;2024-02-26T02:37:23;99187.75;;;5.93;86.54
2178;BME280;1095;50.992;6.798;2024-02-26T02:39:51;99175.00;;;5.88;86.90
2178;BME280;1095;50.992;6.798;2024-02-26T02:42:20;99176.25;;;5.94;86.12
2178;BME280;1095;50.992;6.798;2024-02-26T02:44:47;99176.41;;;5.92;86.12
2178;BME280;1095;50.992;6.798;2024-02-26T02:47:14;99176.25;;;5.94;85.26
2178;BME280;1095;50.992;6.798;2024-02-26T02:49:41;99170.06;;;5.85;86.84
2178;BME280;1095;50.992;6.798;2024-02-26T02:52:08;99181.91;;;5.89;86.05
2178;BME280;1095;50.992;6.798;2024-02-26T02:54:34;99174.03;;;5.89;86.66
2178;BME280;1095;50.992;6.798;2024-02-26T02:57:03;99181.91;;;5.89;86.90
2178;BME280;1095;50.992;6.798;2024-02-26T02:59:30;99177.63;;;5.88;87.44
2178;BME280;1095;50.992;6.798;2024-02-26T03:01:57;99171.72;;;5.86;87.35
2178;BME280;1095;50.992;6.798;2024-02-26T03:04:23;99182.22;;;5.86;87.25
2178;BME280;1095;50.992;6.798;2024-02-26T03:06:50;99183.84;;;5.87;87.24
2178;BME280;1095;50.992;6.798;2024-02-26T03:09:17;99173.34;;;5.87;87.36
2178;BME280;1095;50.992;6.798;2024-02-26T03:11:43;99182.22;;;5.86;87.71
2178;BME280;1095;50.992;6.798;2024-02-26T03:14:11;99170.47;;;5.90;87.36
2178;BME280;1095;50.992;6.798;2024-02-26T03:16:38;99169.09;;;5.86;87.86
2178;BME280;1095;50.992;6.798;2024-02-26T03:19:04;99175.84;;;5.89;87.17
2178;BME280;1095;50.992;6.798;2024-02-26T03:21:31;99169.38;;;5.93;87.83
2178;BME280;1095;50.992;6.798;2024-02-26T03:23:58;99164.94;;;5.93;87.00
2178;BME280;1095;50.992;6.798;2024-02-26T03:26:24;99174.63;;;5.93;87.48
2178;BME280;1095;50.992;6.798;2024-02-26T03:28:51;99166.03;;;5.91;87.75
2178;BME280;1095;50.992;6.798;2024-02-26T03:31:19;99175.97;;;5.87;88.24
2178;BME280;1095;50.992;6.798;2024-02-26T03:33:46;99165.63;;;5.86;88.60
2178;BME280;1095;50.992;6.798;2024-02-26T03:36:13;99175.31;;;5.85;88.24
2178;BME280;1095;50.992;6.798;2024-02-26T03:38:40;99178.19;;;5.82;88.46
2178;BME280;1095;50.992;6.798;2024-02-26T03:41:06;99173.63;;;5.84;89.67
2178;BME280;1095;50.992;6.798;2024-02-26T03:43:33;99173.78;;;5.92;88.87
2178;BME280;1095;50.992;6.798;2024-02-26T03:46:00;99176.53;;;5.91;88.85
2178;BME280;1095;50.992;6.798;2024-02-26T03:48:28;99171.88;;;5.94;87.18
2178;BME280;1095;50.992;6.798;2024-02-26T03:50:55;99182.06;;;5.97;87.80
2178;BME280;1095;50.992;6.798;2024-02-26T03:53:22;99173.63;;;5.94;87.64
2178;BME280;1095;50.992;6.798;2024-02-26T03:55:48;99176.53;;;5.91;88.59
2178;BME280;1095;50.992;6.798;2024-02-26T03:58:17;99175.84;;;5.89;88.98
2178;BME280;1095;50.992;6.798;2024-02-26T04:00:44;99183.03;;;5.87;89.81
2178;BME280;1095;50.992;6.798;2024-02-26T04:03:12;99181.06;;;5.89;89.19
2178;BME280;1095;50.992;6.798;2024-02-26T04:05:40;99183.03;;;5.87;89.40
2178;BME280;1095;50.992;6.798;2024-02-26T04:08:07;99186.75;;;5.84;89.39
2178;BME280;1095;50.992;6.798;2024-02-26T04:10:33;99187.72;;;5.83;89.97
2178;BME280;1095;50.992;6.798;2024-02-26T04:13:03;99189.53;;;5.82;89.53
2178;BME280;1095;50.992;6.798;2024-02-26T04:15:30;99191.59;;;5.79;90.68
2178;BME280;1095;50.992;6.798;2024-02-26T04:17:57;99206.38;;;5.80;90.27
2178;BME280;1095;50.992;6.798;2024-02-26T04:20:23;99203.34;;;5.75;91.04
2178;BME280;1095;50.992;6.798;2024-02-26T04:22:51;99206.66;;;5.77;91.01
2178;BME280;1095;50.992;6.798;2024-02-26T04:25:18;99207.50;;;5.77;90.99
2178;BME280;1095;50.992;6.798;2024-02-26T04:27:45;99205.28;;;5.73;91.28
2178;BME280;1095;50.992;6.798;2024-02-26T04:30:12;99216.06;;;5.70;92.11
2178;BME280;1095;50.992;6.798;2024-02-26T04:32:38;99219.38;;;5.72;91.48
2178;BME280;1095;50.992;6.798;2024-02-26T04:35:05;99231.78;;;5.70;92.60
2178;BME280;1095;50.992;6.798;2024-02-26T04:37:32;99223.50;;;5.65;93.43
2178;BME280;1095;50.992;6.798;2024-02-26T04:40:01;99224.50;;;5.64;93.75
2178;BME280;1095;50.992;6.798;2024-02-26T04:42:28;99219.91;;;5.66;92.90
2178;BME280;1095;50.992;6.798;2024-02-26T04:44:55;99215.78;;;5.63;92.49
2178;BME280;1095;50.992;6.798;2024-02-26T04:47:21;99215.91;;;5.62;93.38
2178;BME280;1095;50.992;6.798;2024-02-26T04:49:49;99220.47;;;5.60;94.09
2178;BME280;1095;50.992;6.798;2024-02-26T04:52:15;99225.72;;;5.60;93.66
2178;BME280;1095;50.992;6.798;2024-02-26T04:54:42;99218.81;;;5.58;94.06
2178;BME280;1095;50.992;6.798;2024-02-26T04:57:10;99223.22;;;5.58;93.74
2178;BME280;1095;50.992;6.798;2024-02-26T04:59:37;99222.53;;;5.56;94.16
2178;BME280;1095;50.992;6.798;2024-02-26T05:02:03;99216.31;;;5.57;93.65
2178;BME280;1095;50.992;6.798;2024-02-26T05:04:30;99212.59;;;5.60;94.26
2178;BME280;1095;50.992;6.798;2024-02-26T05:06:56;99223.09;;;5.60;93.87
2178;BME280;1095;50.992;6.798;2024-02-26T05:09:23;99219.75;;;5.57;93.52
2178;BME280;1095;50.992;6.798;2024-02-26T05:11:50;99226.00;;;5.56;93.72
2178;BME280;1095;50.992;6.798;2024-02-26T05:14:18;99224.34;;;5.55;94.35
2178;BME280;1095;50.992;6.798;2024-02-26T05:16:44;99222.69;;;5.54;94.24
2178;BME280;1095;50.992;6.798;2024-02-26T05:19:13;99219.75;;;5.57;93.74
2178;BME280;1095;50.992;6.798;2024-02-26T05:21:42;99219.91;;;5.56;94.19
2178;BME280;1095;50.992;6.798;2024-02-26T05:24:10;99222.53;;;5.56;93.96
2178;BME280;1095;50.992;6.798;2024-02-26T05:26:36;99218.25;;;5.55;94.32
2178;BME280;1095;50.992;6.798;2024-02-26T05:29:03;99220.06;;;5.54;94.23
2178;BME280;1095;50.992;6.798;2024-02-26T05:31:31;99231.50;;;5.53;94.13
2178;BME280;1095;50.992;6.798;2024-02-26T05:33:57;99238.44;;;5.54;94.03
2178;BME280;1095;50.992;6.798;2024-02-26T05:36:27;99237.88;;;5.51;94.78
2178;BME280;1095;50.992;6.798;2024-02-26T05:38:58;99237.72;;;5.52;94.32
2178;BME280;1095;50.992;6.798;2024-02-26T05:41:25;99239.50;;;5.52;94.34
2178;BME280;1095;50.992;6.798;2024-02-26T05:43:52;99238.94;;;5.48;95.08
2178;BME280;1095;50.992;6.798;2024-02-26T05:46:18;99238.94;;;5.48;94.89
2178;BME280;1095;50.992;6.798;2024-02-26T05:48:49;99245.75;;;5.51;94.20
2178;BME280;1095;50.992;6.798;2024-02-26T05:51:17;99245.88;;;5.49;94.22
2178;BME280;1095;50.992;6.798;2024-02-26T05:53:44;99248.63;;;5.48;95.49
2178;BME280;1095;50.992;6.798;2024-02-26T05:56:12;99249.44;;;5.48;94.72
2178;BME280;1095;50.992;6.798;2024-02-26T05:58:38;99255.00;;;5.45;95.42
2178;BME280;1095;50.992;6.798;2024-02-26T06:01:05;99247.78;;;5.47;95.30
2178;BME280;1095;50.992;6.798;2024-02-26T06:03:31;99255.00;;;5.45;95.32
2178;BME280;1095;50.992;6.798;2024-02-26T06:05:59;99252.78;;;5.50;94.74
2178;BME280;1095;50.992;6.798;2024-02-26T06:08:26;99260.91;;;5.47;95.10
2178;BME280;1095;50.992;6.798;2024-02-26T06:10:54;99259.25;;;5.46;96.26
2178;BME280;1095;50.992;6.798;2024-02-26T06:13:21;99264.38;;;5.48;95.78
2178;BME280;1095;50.992;6.798;2024-02-26T06:15:50;99261.75;;;5.48;95.54
2178;BME280;1095;50.992;6.798;2024-02-26T06:18:17;99275.69;;;5.48;95.65
2178;BME280;1095;50.992;6.798;2024-02-26T06:20:44;99272.78;;;5.42;96.69
2178;BME280;1095;50.992;6.798;2024-02-26T06:23:12;99277.88;;;5.43;96.84
2178;BME280;1095;50.992;6.798;2024-02-26T06:25:39;99281.47;;;5.42;97.49
2178;BME280;1095;50.992;6.798;2024-02-26T06:28:06;99283.28;;;5.42;97.47
2178;BME280;1095;50.992;6.798;2024-02-26T06:30:33;99279.69;;;5.43;96.85
2178;BME280;1095;50.992;6.798;2024-02-26T06:33:03;99282.44;;;5.41;96.94
2178;BME280;1095;50.992;6.798;2024-02-26T06:35:30;99291.97;;;5.42;96.93
2178;BME280;1095;50.992;6.798;2024-02-26T06:37:56;99293.63;;;5.43;96.64
2178;BME280;1095;50.992;6.798;2024-02-26T06:40:24;99302.47;;;5.42;96.28
2178;BME280;1095;50.992;6.798;2024-02-26T06:42:51;99306.31;;;5.38;97.15
2178;BME280;1095;50.992;6.798;2024-02-26T06:45:18;99307.97;;;5.39;97.55
2178;BME280;1095;50.992;6.798;2024-02-26T06:47:45;99309.63;;;5.40;97.96
2178;BME280;1095;50.992;6.798;2024-02-26T06:50:15;99316.66;;;5.40;97.84
2178;BME280;1095;50.992;6.798;2024-02-26T06:52:43;99316.56;;;5.41;97.82
2178;BME280;1095;50.992;6.798;2024-02-26T06:55:10;99317.66;;;5.39;98.47
2178;BME280;1095;50.992;6.798;2024-02-26T06:57:38;99321.81;;;5.41;97.46
2178;BME280;1095;50.992;6.798;2024-02-26T07:00:06;99324.69;;;5.38;98.18
2178;BME280;1095;50.992;6.798;2024-02-26T07:02:32;99323.03;;;5.37;98.94
2178;BME280;1095;50.992;6.798;2024-02-26T07:08:21;99337.13;;;5.36;98.58
2178;BME280;1095;50.992;6.798;2024-02-26T07:10:47;99325.09;;;5.33;99.35
2178;BME280;1095;50.992;6.798;2024-02-26T07:13:15;99337.22;;;5.35;99.11
2178;BME280;1095;50.992;6.798;2024-02-26T07:15:42;99337.22;;;5.35;99.00
2178;BME280;1095;50.992;6.798;2024-02-26T07:18:09;99341.50;;;5.36;99.36
2178;BME280;1095;50.992;6.798;2024-02-26T07:20:35;99334.59;;;5.35;99.73
2178;BME280;1095;50.992;6.798;2024-02-26T07:23:03;99342.22;;;5.38;98.68
2178;BME280;1095;50.992;6.798;2024-02-26T07:25:30;99345.81;;;5.37;99.02
2178;BME280;1095;50.992;6.798;2024-02-26T07:27:56;99354.38;;;5.39;98.37
2178;BME280;1095;50.992;6.798;2024-02-26T07:30:24;99348.97;;;5.40;97.84
2178;BME280;1095;50.992;6.798;2024-02-26T07:32:51;99346.09;;;5.43;98.79
2178;BME280;1095;50.992;6.798;2024-02-26T07:35:18;99358.66;;;5.40;98.05
2178;BME280;1095;50.992;6.798;2024-02-26T07:37:47;99356.84;;;5.40;97.73
2178;BME280;1095;50.992;6.798;2024-02-26T07:40:15;99351.59;;;5.40;97.36
2178;BME280;1095;50.992;6.798;2024-02-26T07:42:41;99358.78;;;5.38;98.11
2178;BME280;1095;50.992;6.798;2024-02-26T07:45:09;99352.47;;;5.41;97.71
2178;BME280;1095;50.992;6.798;2024-02-26T07:47:37;99359.38;;;5.42;97.05
2178;BME280;1095;50.992;6.798;2024-02-26T07:50:07;99367.09;;;5.43;98.04
2178;BME280;1095;50.992;6.798;2024-02-26T07:52:34;99365.22;;;5.65;96.63
2178;BME280;1095;50.992;6.798;2024-02-26T07:55:00;99369.91;;;5.61;97.05
2178;BME280;1095;50.992;6.798;2024-02-26T07:57:27;99363.16;;;5.58;96.73
2178;BME280;1095;50.992;6.798;2024-02-26T07:59:54;99373.19;;;5.53;98.06
2178;BME280;1095;50.992;6.798;2024-02-26T08:02:21;99374.31;;;5.51;97.52
2178;BME280;1095;50.992;6.798;2024-02-26T08:04:49;99373.06;;;5.45;97.05
2178;BME280;1095;50.992;6.798;2024-02-26T08:07:16;99386.03;;;5.47;97.25
2178;BME280;1095;50.992;6.798;2024-02-26T08:09:43;99382.56;;;5.46;97.23
2178;BME280;1095;50.992;6.798;2024-02-26T08:12:09;99379.94;;;5.46;97.85
2178;BME280;1095;50.992;6.798;2024-02-26T08:14:36;99383.16;;;5.50;97.77
2178;BME280;1095;50.992;6.798;2024-02-26T08:17:03;99396.38;;;5.48;97.73
2178;BME280;1095;50.992;6.798;2024-02-26T08:19:30;99393.66;;;5.50;97.05
2178;BME280;1095;50.992;6.798;2024-02-26T08:21:58;99396.38;;;5.48;96.89
2178;BME280;1095;50.992;6.798;2024-02-26T08:24:24;99404.25;;;5.48;96.53
2178;BME280;1095;50.992;6.798;2024-02-26T08:26:51;99405.78;;;5.51;96.14
2178;BME280;1095;50.992;6.798;2024-02-26T08:29:18;99393.50;;;5.51;96.60
2178;BME280;1095;50.992;6.798;2024-02-26T08:31:45;99404.97;;;5.50;97.42
2178;BME280;1095;50.992;6.798;2024-02-26T08:34:11;99410.91;;;5.52;97.00
2178;BME280;1095;50.992;6.798;2024-02-26T08:36:38;99413.66;;;5.51;96.44
2178;BME280;1095;50.992;6.798;2024-02-26T08:39:06;99431.22;;;5.50;97.04
2178;BME280;1095;50.992;6.798;2024-02-26T08:41:34;99428.44;;;5.52;96.74
2178;BME280;1095;50.992;6.798;2024-02-26T08:44:01;99423.44;;;5.49;96.94
2178;BME280;1095;50.992;6.798;2024-02-26T08:46:27;99424.16;;;5.51;96.86
2178;BME280;1095;50.992;6.798;2024-02-26T08:48:54;99419.75;;;5.51;98.17
2178;BME280;1095;50.992;6.798;2024-02-26T08:51:21;99419.06;;;5.49;97.19
2178;BME280;1095;50.992;6.798;2024-02-26T08:53:47;99430.38;;;5.50;98.29
2178;BME280;1095;50.992;6.798;2024-02-26T08:56:16;99431.22;;;5.50;97.49
2178;BME280;1095;50.992;6.798;2024-02-26T08:58:43;99431.22;;;5.50;97.67
2178;BME280;1095;50.992;6.798;2024-02-26T09:01:11;99440.03;;;5.49;97.72
2178;BME280;1095;50.992;6.798;2024-02-26T09:03:38;99438.25;;;5.50;97.28
2178;BME280;1095;50.992;6.798;2024-02-26T09:06:08;99448.34;;;5.54;96.93
2178;BME280;1095;50.992;6.798;2024-02-26T09:08:35;99450.41;;;5.51;97.32
2178;BME280;1095;50.992;6.798;2024-02-26T09:11:02;99443.34;;;5.51;97.66
2178;BME280;1095;50.992;6.798;2024-02-26T09:13:30;99455.50;;;5.52;97.59
2178;BME280;1095;50.992;6.798;2024-02-26T09:15:57;99450.25;;;5.52;98.84
2178;BME280;1095;50.992;6.798;2024-02-26T09:18:24;99466.00;;;5.52;97.60
2178;BME280;1095;50.992;6.798;2024-02-26T09:20:51;99464.94;;;5.55;97.48
2178;BME280;1095;50.992;6.798;2024-02-26T09:23:18;99468.22;;;5.57;97.49
2178;BME280;1095;50.992;6.798;2024-02-26T09:25:45;99472.16;;;5.63;97.40
2178;BME280;1095;50.992;6.798;2024-02-26T09:28:11;99468.66;;;5.62;96.42
2178;BME280;1095;50.992;6.798;2024-02-26T09:30:39;99487.31;;;5.59;96.12
2178;BME280;1095;50.992;6.798;2024-02-26T09:33:06;99483.88;;;5.58;96.42
2178;BME280;1095;50.992;6.798;2024-02-26T09:35:32;99490.06;;;5.57;96.82
2178;BME280;1095;50.992;6.798;2024-02-26T09:37:59;99487.31;;;5.59;96.81
2178;BME280;1095;50.992;6.798;2024-02-26T09:40:26;99493.25;;;5.61;97.20
2178;BME280;1095;50.992;6.798;2024-02-26T09:42:58;99496.03;;;5.60;97.50
2178;BME280;1095;50.992;6.798;2024-02-26T09:45:26;99501.97;;;5.62;97.08
2178;BME280;1095;50.992;6.798;2024-02-26T09:47:56;99502.09;;;5.60;97.27
2178;BME280;1095;50.992;6.798;2024-02-26T09:50:23;99501.13;;;5.61;97.01
2178;BME280;1095;50.992;6.798;2024-02-26T09:52:49;99515.53;;;5.67;97.29
2178;BME280;1095;50.992;6.798;2024-02-26T09:55:17;99513.88;;;5.66;97.16
2178;BME280;1095;50.992;6.798;2024-02-26T09:57:46;99514.56;;;5.68;96.84
2178;BME280;1095;50.992;6.798;2024-02-26T10:00:17;99518.59;;;5.72;96.21
2178;BME280;1095;50.992;6.798;2024-02-26T10:02:45;99513.63;;;5.69;97.35
2178;BME280;1095;50.992;6.798;2024-02-26T10:05:14;99519.69;;;5.69;97.06
2178;BME280;1095;50.992;6.798;2024-02-26T10:07:44;99516.09;;;5.70;97.05
2178;BME280;1095;50.992;6.798;2024-02-26T10:10:11;99520.94;;;5.75;95.56
2178;BME280;1095;50.992;6.798;2024-02-26T10:12:37;99525.75;;;5.70;96.08
2178;BME280;1095;50.992;6.798;2024-02-26T10:15:04;99527.56;;;5.69;96.49
2178;BME280;1095;50.992;6.798;2024-02-26T10:17:31;99539.03;;;5.68;97.23
2178;BME280;1095;50.992;6.798;2024-02-26T10:20:11;99540.53;;;5.71;96.44
2178;BME280;1095;50.992;6.798;2024-02-26T10:22:40;99534.91;;;5.75;96.62
2178;BME280;1095;50.992;6.798;2024-02-26T10:25:08;99536.44;;;5.78;95.89
2178;BME280;1095;50.992;6.798;2024-02-26T10:27:37;99542.84;;;5.85;96.68
2178;BME280;1095;50.992;6.798;2024-02-26T10:30:16;99537.72;;;5.83;94.32
2178;BME280;1095;50.992;6.798;2024-02-26T10:32:43;99544.50;;;5.86;94.58
2178;BME280;1095;50.992;6.798;2024-02-26T10:35:10;99543.03;;;5.93;96.21
2178;BME280;1095;50.992;6.798;2024-02-26T10:37:37;99542.66;;;5.98;95.05
2178;BME280;1095;50.992;6.798;2024-02-26T10:40:07;99553.75;;;6.11;95.25
2178;BME280;1095;50.992;6.798;2024-02-26T10:42:36;99547.84;;;6.19;95.16
2178;BME280;1095;50.992;6.798;2024-02-26T10:45:03;99552.28;;;6.18;94.38
2178;BME280;1095;50.992;6.798;2024-02-26T10:47:31;99557.13;;;6.23;94.85
2178;BME280;1095;50.992;6.798;2024-02-26T10:49:59;99554.25;;;6.26;94.46
2178;BME280;1095;50.992;6.798;2024-02-26T10:52:25;99563.66;;;6.38;95.49
2178;BME280;1095;50.992;6.798;2024-02-26T10:54:54;99559.56;;;6.45;94.76
2178;BME280;1095;50.992;6.798;2024-02-26T10:57:24;99562.75;;;6.49;93.64
2178;BME280;1095;50.992;6.798;2024-02-26T10:59:52;99575.09;;;6.58;92.69
2178;BME280;1095;50.992;6.798;2024-02-26T11:02:20;99567.19;;;6.48;93.08
2178;BME280;1095;50.992;6.798;2024-02-26T11:04:47;99569.25;;;6.54;93.27
2178;BME280;1095;50.992;6.798;2024-02-26T11:07:16;99569.25;;;6.54;92.33
2178;BME280;1095;50.992;6.798;2024-02-26T11:09:44;99576.16;;;6.46;92.80
2178;BME280;1095;50.992;6.798;2024-02-26T11:12:17;99585.28;;;6.51;93.33
2178;BME280;1095;50.992;6.798;2024-02-26T11:14:46;99578.94;;;6.54;92.43
2178;BME280;1095;50.992;6.798;2024-02-26T11:17:15;99587.66;;;6.54;91.95
2178;BME280;1095;50.992;6.798;2024-02-26T11:19:43;99587.00;;;6.62;92.61
2178;BME280;1095;50.992;6.798;2024-02-26T11:22:10;99590.44;;;6.63;91.88
2178;BME280;1095;50.992;6.798;2024-02-26T11:24:37;99587.28;;;6.69;91.34
2178;BME280;1095;50.992;6.798;2024-02-26T11:27:07;99591.69;;;6.68;91.46
2178;BME280;1095;50.992;6.798;2024-02-26T11:29:39;99592.25;;;6.62;90.80
2178;BME280;1095;50.992;6.798;2024-02-26T11:32:08;99591.13;;;6.65;91.07
2178;BME280;1095;50.992;6.798;2024-02-26T11:34:36;99600.53;;;6.57;91.05
2178;BME280;1095;50.992;6.798;2024-02-26T11:37:11;99597.38;;;6.64;91.49
2178;BME280;1095;50.992;6.798;2024-02-26T11:39:39;99600.53;;;6.57;91.47
2178;BME280;1095;50.992;6.798;2024-02-26T11:42:07;99599.72;;;6.57;91.64
2178;BME280;1095;50.992;6.798;2024-02-26T11:44:35;99595.28;;;6.57;91.03
2178;BME280;1095;50.992;6.798;2024-02-26T11:47:11;99606.06;;;6.54;91.42
2178;BME280;1095;50.992;6.798;2024-02-26T11:49:38;99609.13;;;6.59;91.64
2178;BME280;1095;50.992;6.798;2024-02-26T11:52:07;99602.19;;;6.58;90.73
2178;BME280;1095;50.992;6.798;2024-02-26T11:54:39;99609.13;;;6.59;91.00
2178;BME280;1095;50.992;6.798;2024-02-26T11:57:20;99604.69;;;6.60;90.89
2178;BME280;1095;50.992;6.798;2024-02-26T11:59:47;99617.53;;;6.53;90.90
2178;BME280;1095;50.992;6.798;2024-02-26T12:02:43;99614.91;;;6.53;91.41
2178;BME280;1095;50.992;6.798;2024-02-26T12:05:12;99618.81;;;6.59;92.12
2178;BME280;1095;50.992;6.798;2024-02-26T12:07:46;99626.25;;;6.54;92.29
2178;BME280;1095;50.992;6.798;2024-02-26T12:10:15;99620.31;;;6.52;92.68
2178;BME280;1095;50.992;6.798;2024-02-26T12:12:42;99619.06;;;6.56;92.84
2178;BME280;1095;50.992;6.798;2024-02-26T12:15:23;99621.81;;;6.54;93.35
2178;BME280;1095;50.992;6.798;2024-02-26T12:17:53;99622.81;;;6.53;94.01
2178;BME280;1095;50.992;6.798;2024-02-26T12:20:20;99625.94;;;6.47;92.82
2178;BME280;1095;50.992;6.798;2024-02-26T12:22:49;99633.13;;;6.45;93.90
2178;BME280;1095;50.992;6.798;2024-02-26T12:25:20;99630.75;;;6.42;93.74
2178;BME280;1095;50.992;6.798;2024-02-26T12:27:47;99637.56;;;6.45;94.82
2178;BME280;1095;50.992;6.798;2024-02-26T12:30:14;99646.72;;;6.50;94.60
2178;BME280;1095;50.992;6.798;2024-02-26T12:32:44;99653.91;;;6.48;94.18
2178;BME280;1095;50.992;6.798;2024-02-26T12:35:13;99649.66;;;6.57;94.68
2178;BME280;1095;50.992;6.798;2024-02-26T12:37:41;99663.09;;;6.64;94.82
2178;BME280;1095;50.992;6.798;2024-02-26T12:40:09;99664.63;;;6.66;95.02
2178;BME280;1095;50.992;6.798;2024-02-26T12:42:37;99666.88;;;6.80;94.68
2178;BME280;1095;50.992;6.798;2024-02-26T12:45:07;99676.56;;;6.80;93.82
2178;BME280;1095;50.992;6.798;2024-02-26T12:47:35;99679.91;;;6.82;93.40
2178;BME280;1095;50.992;6.798;2024-02-26T12:50:03;99686.53;;;6.76;93.62
2178;BME280;1095;50.992;6.798;2024-02-26T12:52:32;99679.59;;;6.75;95.00
2178;BME280;1095;50.992;6.798;2024-02-26T12:55:00;99691.13;;;6.84;93.99
2178;BME280;1095;50.992;6.798;2024-02-26T12:57:27;99693.63;;;6.86;94.81
2178;BME280;1095;50.992;6.798;2024-02-26T12:59:58;99698.59;;;6.79;93.63
2178;BME280;1095;50.992;6.798;2024-02-26T13:02:25;99700.75;;;6.74;95.47
2178;BME280;1095;50.992;6.798;2024-02-26T13:04:52;99699.97;;;6.83;95.98
2178;BME280;1095;50.992;6.798;2024-02-26T13:07:20;99707.03;;;6.82;95.87
2178;BME280;1095;50.992;6.798;2024-02-26T13:09:49;99704.78;;;6.78;95.19
2178;BME280;1095;50.992;6.798;2024-02-26T13:12:17;99717.81;;;6.79;95.60
2178;BME280;1095;50.992;6.798;2024-02-26T13:14:44;99716.25;;;6.67;96.67
2178;BME280;1095;50.992;6.798;2024-02-26T13:17:11;99726.25;;;6.83;96.30
2178;BME280;1095;50.992;6.798;2024-02-26T13:19:48;99720.06;;;6.84;97.09
2178;BME280;1095;50.992;6.798;2024-02-26T13:22:15;99727.06;;;6.74;97.17
2178;BME280;1095;50.992;6.798;2024-02-26T13:24:42;99729.59;;;6.85;95.90
2178;BME280;1095;50.992;6.798;2024-02-26T13:27:25;99733.19;;;6.84;95.61
2178;BME280;1095;50.992;6.798;2024-02-26T13:30:03;99734.00;;;6.75;95.75
2178;BME280;1095;50.992;6.798;2024-02-26T13:32:32;99741.88;;;6.75;94.60
2178;BME280;1095;50.992;6.798;2024-02-26T13:35:07;99736.34;;;6.78;94.30
2178;BME280;1095;50.992;6.798;2024-02-26T13:37:34;99732.88;;;6.77;95.84